sensor_id;sensor_type;location;lat;lon;timestamp;pressure;altitude;pressure_sealevel;temperature;humidity
74542;BME280;63015;45.378;20.360;2023-06-22T00:01:56;100937.56;;;25.49;57.40
74542;BME280;63015;45.378;20.360;2023-06-22T00:03:57;100926.28;;;25.44;57.96
74542;BME280;63015;45.378;20.360;2023-06-22T00:05:57;100922.72;;;25.43;57.75
74542;BME280;63015;45.378;20.360;2023-06-22T00:08:02;100932.47;;;25.44;58.14
74542;BME280;63015;45.378;20.360;2023-06-22T00:10:03;100931.53;;;25.46;58.23
74542;BME280;63015;45.378;20.360;2023-06-22T00:12:05;100924.47;;;25.44;58.08
74542;BME280;63015;45.378;20.360;2023-06-22T00:14:05;100921.97;;;25.41;58.15
74542;BME280;63015;45.378;20.360;2023-06-22T00:16:06;100936.50;;;25.36;59.07
74542;BME280;63015;45.378;20.360;2023-06-22T00:18:08;100938.38;;;25.34;58.87
74542;BME280;63015;45.378;20.360;2023-06-22T00:20:09;100929.56;;;25.32;58.90
74542;BME280;63015;45.378;20.360;2023-06-22T00:22:10;100919.16;;;25.27;58.89
74542;BME280;63015;45.378;20.360;2023-06-22T00:24:11;100926.38;;;25.25;58.99
74542;BME280;63015;45.378;20.360;2023-06-22T00:26:11;100940.66;;;25.24;59.55
74542;BME280;63015;45.378;20.360;2023-06-22T00:28:12;100925.78;;;25.20;59.74
74542;BME280;63015;45.378;20.360;2023-06-22T00:30:15;100911.56;;;25.19;59.89
74542;BME280;63015;45.378;20.360;2023-06-22T00:32:15;100899.25;;;25.17;59.98
74542;BME280;63015;45.378;20.360;2023-06-22T00:34:17;100890.66;;;25.11;60.24
74542;BME280;63015;45.378;20.360;2023-06-22T00:36:18;100881.72;;;25.12;60.00
74542;BME280;63015;45.378;20.360;2023-06-22T00:38:20;100886.34;;;25.09;59.65
74542;BME280;63015;45.378;20.360;2023-06-22T00:40:21;100888.88;;;25.12;59.88
74542;BME280;63015;45.378;20.360;2023-06-22T00:42:22;100886.97;;;25.14;59.68
74542;BME280;63015;45.378;20.360;2023-06-22T00:44:23;100890.50;;;25.15;60.01
74542;BME280;63015;45.378;20.360;2023-06-22T00:46:25;100882.59;;;25.13;60.01
74542;BME280;63015;45.378;20.360;2023-06-22T00:48:26;100871.22;;;25.09;60.15
74542;BME280;63015;45.378;20.360;2023-06-22T00:50:29;100872.16;;;25.08;60.31
74542;BME280;63015;45.378;20.360;2023-06-22T00:52:33;100879.31;;;25.08;60.25
74542;BME280;63015;45.378;20.360;2023-06-22T00:54:36;100870.34;;;25.09;59.82
74542;BME280;63015;45.378;20.360;2023-06-22T00:56:37;100866.84;;;25.08;60.01
74542;BME280;63015;45.378;20.360;2023-06-22T00:58:37;100853.50;;;25.08;59.83
74542;BME280;63015;45.378;20.360;2023-06-22T01:00:41;100853.50;;;25.08;59.83
74542;BME280;63015;45.378;20.360;2023-06-22T01:02:43;100862.44;;;25.07;60.00
74542;BME280;63015;45.378;20.360;2023-06-22T01:04:46;100868.72;;;25.06;60.19
74542;BME280;63015;45.378;20.360;2023-06-22T01:09:20;100869.31;;;24.95;61.13
74542;BME280;63015;45.378;20.360;2023-06-22T01:11:32;100877.53;;;24.91;61.00
74542;BME280;63015;45.378;20.360;2023-06-22T01:16:00;100929.06;;;24.21;63.10
74542;BME280;63015;45.378;20.360;2023-06-22T01:18:04;100937.13;;;24.02;61.83
74542;BME280;63015;45.378;20.360;2023-06-22T01:20:08;100942.38;;;24.21;61.21
74542;BME280;63015;45.378;20.360;2023-06-22T01:22:13;100933.56;;;24.38;59.68
74542;BME280;63015;45.378;20.360;2023-06-22T01:24:30;100940.59;;;24.39;58.88
74542;BME280;63015;45.378;20.360;2023-06-22T01:26:43;100940.44;;;24.42;58.66
74542;BME280;63015;45.378;20.360;2023-06-22T01:28:53;100944.03;;;24.41;57.62
74542;BME280;63015;45.378;20.360;2023-06-22T01:30:55;100948.97;;;24.49;57.50
74542;BME280;63015;45.378;20.360;2023-06-22T01:33:05;100938.09;;;24.36;58.14
74542;BME280;63015;45.378;20.360;2023-06-22T01:35:08;100942.25;;;24.24;58.42
74542;BME280;63015;45.378;20.360;2023-06-22T01:37:09;100941.94;;;24.30;58.69
74542;BME280;63015;45.378;20.360;2023-06-22T01:39:11;100939.56;;;24.24;58.66
74542;BME280;63015;45.378;20.360;2023-06-22T01:41:13;100937.69;;;24.09;59.34
74542;BME280;63015;45.378;20.360;2023-06-22T01:43:14;100940.00;;;23.97;60.10
74542;BME280;63015;45.378;20.360;2023-06-22T01:45:15;100941.09;;;23.93;60.22
74542;BME280;63015;45.378;20.360;2023-06-22T01:47:16;100940.16;;;23.94;60.10
74542;BME280;63015;45.378;20.360;2023-06-22T01:49:17;100935.31;;;23.84;60.38
74542;BME280;63015;45.378;20.360;2023-06-22T01:51:18;100935.22;;;23.85;60.44
74542;BME280;63015;45.378;20.360;2023-06-22T01:53:22;100931.56;;;23.88;60.56
74542;BME280;63015;45.378;20.360;2023-06-22T01:55:26;100921.19;;;23.64;61.74
74542;BME280;63015;45.378;20.360;2023-06-22T01:57:27;100932.09;;;23.58;62.12
74542;BME280;63015;45.378;20.360;2023-06-22T02:02:02;100923.47;;;23.34;63.37
74542;BME280;63015;45.378;20.360;2023-06-22T02:04:12;100932.44;;;23.31;63.23
74542;BME280;63015;45.378;20.360;2023-06-22T02:06:17;100935.38;;;23.25;63.50
74542;BME280;63015;45.378;20.360;2023-06-22T02:08:32;100952.88;;;23.30;63.86
74542;BME280;63015;45.378;20.360;2023-06-22T02:10:37;100956.53;;;23.28;63.41
74542;BME280;63015;45.378;20.360;2023-06-22T02:12:38;100945.81;;;23.29;63.24
74542;BME280;63015;45.378;20.360;2023-06-22T02:14:41;100956.72;;;23.23;63.56
74542;BME280;63015;45.378;20.360;2023-06-22T02:16:43;100957.81;;;23.19;63.76
74542;BME280;63015;45.378;20.360;2023-06-22T02:18:48;100955.66;;;23.07;64.40
74542;BME280;63015;45.378;20.360;2023-06-22T02:20:52;100958.63;;;23.01;64.62
74542;BME280;63015;45.378;20.360;2023-06-22T02:22:53;100950.16;;;23.11;64.33
74542;BME280;63015;45.378;20.360;2023-06-22T02:24:53;100964.06;;;22.97;65.07
74542;BME280;63015;45.378;20.360;2023-06-22T02:26:54;100962.31;;;22.96;64.80
74542;BME280;63015;45.378;20.360;2023-06-22T02:28:55;100960.81;;;22.91;65.21
74542;BME280;63015;45.378;20.360;2023-06-22T02:30:56;100958.81;;;22.96;65.24
74542;BME280;63015;45.378;20.360;2023-06-22T02:32:56;100962.47;;;22.93;65.45
74542;BME280;63015;45.378;20.360;2023-06-22T02:35:00;100958.97;;;22.93;65.22
74542;BME280;63015;45.378;20.360;2023-06-22T02:37:04;100944.06;;;22.89;65.31
74542;BME280;63015;45.378;20.360;2023-06-22T02:39:06;100951.31;;;22.85;65.49
74542;BME280;63015;45.378;20.360;2023-06-22T02:41:07;100938.03;;;22.85;65.71
74542;BME280;63015;45.378;20.360;2023-06-22T02:43:08;100951.25;;;22.87;65.80
74542;BME280;63015;45.378;20.360;2023-06-22T02:45:09;100940.63;;;22.87;65.90
74542;BME280;63015;45.378;20.360;2023-06-22T02:47:10;100936.66;;;22.76;66.50
74542;BME280;63015;45.378;20.360;2023-06-22T02:49:11;100926.88;;;22.77;66.32
74542;BME280;63015;45.378;20.360;2023-06-22T02:51:12;100934.78;;;22.78;66.50
74542;BME280;63015;45.378;20.360;2023-06-22T02:53:13;100932.09;;;22.78;66.24
74542;BME280;63015;45.378;20.360;2023-06-22T02:55:18;100926.75;;;22.80;66.34
74542;BME280;63015;45.378;20.360;2023-06-22T02:57:26;100927.13;;;22.71;66.43
74542;BME280;63015;45.378;20.360;2023-06-22T02:59:27;100921.03;;;22.69;66.72
74542;BME280;63015;45.378;20.360;2023-06-22T03:01:35;100926.09;;;22.75;66.55
74542;BME280;63015;45.378;20.360;2023-06-22T03:03:43;100930.59;;;22.73;66.49
74542;BME280;63015;45.378;20.360;2023-06-22T03:05:44;100930.94;;;22.65;67.07
74542;BME280;63015;45.378;20.360;2023-06-22T03:07:45;100928.75;;;22.75;66.55
74542;BME280;63015;45.378;20.360;2023-06-22T03:09:46;100942.31;;;22.69;67.06
74542;BME280;63015;45.378;20.360;2023-06-22T03:11:47;100944.16;;;22.66;67.05
74542;BME280;63015;45.378;20.360;2023-06-22T03:13:48;100939.72;;;22.67;66.99
74542;BME280;63015;45.378;20.360;2023-06-22T03:15:49;100939.81;;;22.64;66.79
74542;BME280;63015;45.378;20.360;2023-06-22T03:17:49;100934.41;;;22.67;67.04
74542;BME280;63015;45.378;20.360;2023-06-22T03:19:50;100934.50;;;22.64;66.81
74542;BME280;63015;45.378;20.360;2023-06-22T03:21:51;100937.06;;;22.67;66.59
74542;BME280;63015;45.378;20.360;2023-06-22T03:23:51;100946.81;;;22.66;67.02
74542;BME280;63015;45.378;20.360;2023-06-22T03:25:52;100944.72;;;22.73;66.70
74542;BME280;63015;45.378;20.360;2023-06-22T03:27:56;100954.44;;;22.74;67.05
74542;BME280;63015;45.378;20.360;2023-06-22T03:29:57;100949.84;;;22.78;66.50
74542;BME280;63015;45.378;20.360;2023-06-22T03:31:58;100952.44;;;22.79;66.52
74542;BME280;63015;45.378;20.360;2023-06-22T03:33:59;100944.03;;;22.70;67.05
74542;BME280;63015;45.378;20.360;2023-06-22T03:36:00;100942.97;;;22.74;66.91
74542;BME280;63015;45.378;20.360;2023-06-22T03:38:01;100939.50;;;22.72;67.00
74542;BME280;63015;45.378;20.360;2023-06-22T03:40:02;100929.34;;;22.81;66.32
74542;BME280;63015;45.378;20.360;2023-06-22T03:42:06;100928.00;;;22.92;66.06
74542;BME280;63015;45.378;20.360;2023-06-22T03:44:07;100935.69;;;22.98;65.85
74542;BME280;63015;45.378;20.360;2023-06-22T03:46:12;100939.88;;;23.04;65.74
74542;BME280;63015;45.378;20.360;2023-06-22T03:48:13;100935.28;;;23.07;65.94
74542;BME280;63015;45.378;20.360;2023-06-22T03:50:14;100935.41;;;23.04;66.04
74542;BME280;63015;45.378;20.360;2023-06-22T03:52:15;100934.09;;;23.14;65.93
74542;BME280;63015;45.378;20.360;2023-06-22T03:54:15;100930.16;;;23.23;65.75
74542;BME280;63015;45.378;20.360;2023-06-22T03:56:16;100935.19;;;23.29;65.18
74542;BME280;63015;45.378;20.360;2023-06-22T03:58:21;100932.47;;;23.50;65.05
74542;BME280;63015;45.378;20.360;2023-06-22T04:00:22;100938.06;;;24.01;63.77
74542;BME280;63015;45.378;20.360;2023-06-22T04:02:23;100934.41;;;24.56;61.94
74542;BME280;63015;45.378;20.360;2023-06-22T04:04:24;100938.44;;;24.99;60.92
74542;BME280;63015;45.378;20.360;2023-06-22T04:06:25;100944.31;;;24.72;61.17
74542;BME280;63015;45.378;20.360;2023-06-22T04:08:26;100948.91;;;24.33;62.26
74542;BME280;63015;45.378;20.360;2023-06-22T04:10:27;100956.41;;;24.07;62.61
74542;BME280;63015;45.378;20.360;2023-06-22T04:12:28;100964.38;;;24.07;63.45
74542;BME280;63015;45.378;20.360;2023-06-22T04:14:28;100968.00;;;24.41;62.59
74542;BME280;63015;45.378;20.360;2023-06-22T04:16:29;100979.09;;;24.69;62.05
74542;BME280;63015;45.378;20.360;2023-06-22T04:18:30;100980.97;;;24.84;61.67
74542;BME280;63015;45.378;20.360;2023-06-22T04:20:31;100982.78;;;24.84;61.42
74542;BME280;63015;45.378;20.360;2023-06-22T04:22:32;100991.13;;;24.93;60.80
74542;BME280;63015;45.378;20.360;2023-06-22T04:24:33;100990.69;;;24.85;60.94
74542;BME280;63015;45.378;20.360;2023-06-22T04:26:34;100989.22;;;24.79;61.22
74542;BME280;63015;45.378;20.360;2023-06-22T04:28:37;100993.22;;;24.71;61.20
74542;BME280;63015;45.378;20.360;2023-06-22T04:30:38;100981.41;;;24.57;61.64
74542;BME280;63015;45.378;20.360;2023-06-22T04:32:46;100987.25;;;24.66;61.27
74542;BME280;63015;45.378;20.360;2023-06-22T04:34:56;100992.50;;;24.85;60.94
74542;BME280;63015;45.378;20.360;2023-06-22T04:36:57;100998.91;;;24.98;60.93
74542;BME280;63015;45.378;20.360;2023-06-22T04:38:58;100993.28;;;25.20;60.67
74542;BME280;63015;45.378;20.360;2023-06-22T04:40:59;100988.66;;;25.41;59.74
74542;BME280;63015;45.378;20.360;2023-06-22T04:43:02;100986.59;;;25.63;59.15
74542;BME280;63015;45.378;20.360;2023-06-22T04:45:03;100983.41;;;25.72;58.43
74542;BME280;63015;45.378;20.360;2023-06-22T04:47:05;101000.81;;;25.95;58.47
74542;BME280;63015;45.378;20.360;2023-06-22T04:49:09;100996.72;;;26.05;57.79
74542;BME280;63015;45.378;20.360;2023-06-22T04:51:13;100999.00;;;26.27;57.56
74542;BME280;63015;45.378;20.360;2023-06-22T04:53:13;100998.06;;;26.59;57.16
74542;BME280;63015;45.378;20.360;2023-06-22T04:55:14;100986.41;;;26.90;56.19
74542;BME280;63015;45.378;20.360;2023-06-22T04:57:18;100995.59;;;27.01;55.12
74542;BME280;63015;45.378;20.360;2023-06-22T04:59:19;100992.75;;;27.18;55.03
74542;BME280;63015;45.378;20.360;2023-06-22T05:01:20;100989.03;;;27.35;54.67
74542;BME280;63015;45.378;20.360;2023-06-22T05:03:22;100985.72;;;27.46;54.70
74542;BME280;63015;45.378;20.360;2023-06-22T05:05:23;100978.91;;;27.69;53.83
74542;BME280;63015;45.378;20.360;2023-06-22T05:07:24;100974.72;;;27.93;53.48
74542;BME280;63015;45.378;20.360;2023-06-22T05:09:26;100980.53;;;27.99;52.92
74542;BME280;63015;45.378;20.360;2023-06-22T05:11:27;100977.03;;;28.26;52.50
74542;BME280;63015;45.378;20.360;2023-06-22T05:13:28;100980.78;;;28.24;52.18
74542;BME280;63015;45.378;20.360;2023-06-22T05:15:29;100971.31;;;28.18;52.47
74542;BME280;63015;45.378;20.360;2023-06-22T05:17:31;100980.38;;;27.88;52.55
74542;BME280;63015;45.378;20.360;2023-06-22T05:19:31;100988.50;;;27.86;52.53
74542;BME280;63015;45.378;20.360;2023-06-22T05:21:34;100981.72;;;27.81;52.56
74542;BME280;63015;45.378;20.360;2023-06-22T05:23:34;100984.31;;;27.82;52.77
74542;BME280;63015;45.378;20.360;2023-06-22T05:25:35;100974.66;;;27.80;52.13
74542;BME280;63015;45.378;20.360;2023-06-22T05:27:37;100979.41;;;27.89;52.28
74542;BME280;63015;45.378;20.360;2023-06-22T05:29:41;100978.91;;;27.97;52.43
74542;BME280;63015;45.378;20.360;2023-06-22T05:31:42;100982.34;;;28.13;51.53
74542;BME280;63015;45.378;20.360;2023-06-22T05:33:44;100982.97;;;28.17;51.99
74542;BME280;63015;45.378;20.360;2023-06-22T05:35:44;100977.31;;;28.21;52.02
74542;BME280;63015;45.378;20.360;2023-06-22T05:37:45;100977.06;;;28.39;51.71
74542;BME280;63015;45.378;20.360;2023-06-22T05:39:46;100980.09;;;28.60;51.64
74542;BME280;63015;45.378;20.360;2023-06-22T05:41:47;100969.00;;;28.92;50.80
74542;BME280;63015;45.378;20.360;2023-06-22T05:43:47;100979.84;;;28.91;50.78
74542;BME280;63015;45.378;20.360;2023-06-22T05:45:48;100970.84;;;29.04;50.17
74542;BME280;63015;45.378;20.360;2023-06-22T05:47:49;100973.59;;;29.03;50.08
74542;BME280;63015;45.378;20.360;2023-06-22T05:49:49;100967.69;;;29.24;49.67
74542;BME280;63015;45.378;20.360;2023-06-22T05:51:50;100969.84;;;29.31;49.85
74542;BME280;63015;45.378;20.360;2023-06-22T05:53:51;100969.13;;;29.29;50.05
74542;BME280;63015;45.378;20.360;2023-06-22T05:55:51;100959.63;;;29.36;49.99
74542;BME280;63015;45.378;20.360;2023-06-22T05:57:52;100962.22;;;29.51;49.74
74542;BME280;63015;45.378;20.360;2023-06-22T05:59:53;100962.41;;;29.85;49.02
74542;BME280;63015;45.378;20.360;2023-06-22T06:01:54;100961.28;;;30.00;49.02
74542;BME280;63015;45.378;20.360;2023-06-22T06:03:54;100960.41;;;30.24;48.80
74542;BME280;63015;45.378;20.360;2023-06-22T06:05:55;100961.38;;;30.47;48.39
74542;BME280;63015;45.378;20.360;2023-06-22T06:07:56;100956.03;;;30.23;47.41
74542;BME280;63015;45.378;20.360;2023-06-22T06:09:57;100960.66;;;30.21;47.35
74542;BME280;63015;45.378;20.360;2023-06-22T06:11:57;100965.91;;;30.23;47.32
74542;BME280;63015;45.378;20.360;2023-06-22T06:13:58;100957.50;;;30.27;47.36
74542;BME280;63015;45.378;20.360;2023-06-22T06:15:59;100955.84;;;30.38;47.18
74542;BME280;63015;45.378;20.360;2023-06-22T06:17:59;100953.88;;;30.40;46.89
74542;BME280;63015;45.378;20.360;2023-06-22T06:20:00;100959.94;;;30.55;47.30
74542;BME280;63015;45.378;20.360;2023-06-22T06:22:01;100965.75;;;30.84;47.00
74542;BME280;63015;45.378;20.360;2023-06-22T06:24:02;100969.28;;;30.84;46.58
74542;BME280;63015;45.378;20.360;2023-06-22T06:26:02;100970.75;;;30.89;46.64
74542;BME280;63015;45.378;20.360;2023-06-22T06:28:07;100974.25;;;31.13;46.40
74542;BME280;63015;45.378;20.360;2023-06-22T06:30:08;100975.56;;;31.08;46.50
74542;BME280;63015;45.378;20.360;2023-06-22T06:32:09;100969.19;;;31.54;45.52
74542;BME280;63015;45.378;20.360;2023-06-22T06:34:10;100972.06;;;31.96;44.63
74542;BME280;63015;45.378;20.360;2023-06-22T06:36:10;100968.06;;;32.44;44.29
74542;BME280;63015;45.378;20.360;2023-06-22T06:38:11;100969.22;;;32.63;43.79
74542;BME280;63015;45.378;20.360;2023-06-22T06:40:13;100967.09;;;32.45;42.88
74542;BME280;63015;45.378;20.360;2023-06-22T06:42:13;100967.09;;;32.45;43.15
74542;BME280;63015;45.378;20.360;2023-06-22T06:44:14;100968.50;;;32.40;42.88
74542;BME280;63015;45.378;20.360;2023-06-22T06:46:15;100967.22;;;32.23;43.30
74542;BME280;63015;45.378;20.360;2023-06-22T06:48:16;100972.50;;;32.24;43.50
74542;BME280;63015;45.378;20.360;2023-06-22T06:50:18;100981.31;;;32.69;42.80
74542;BME280;63015;45.378;20.360;2023-06-22T06:52:19;100976.47;;;32.84;42.05
74542;BME280;63015;45.378;20.360;2023-06-22T06:54:20;100976.78;;;32.90;41.67
74542;BME280;63015;45.378;20.360;2023-06-22T06:56:21;100975.75;;;33.12;41.65
74542;BME280;63015;45.378;20.360;2023-06-22T06:58:21;100979.00;;;33.37;41.62
74542;BME280;63015;45.378;20.360;2023-06-22T07:00:23;100975.44;;;33.37;41.12
74542;BME280;63015;45.378;20.360;2023-06-22T07:02:25;100976.03;;;33.40;41.60
74542;BME280;63015;45.378;20.360;2023-06-22T07:04:26;100976.06;;;32.88;40.46
74542;BME280;63015;45.378;20.360;2023-06-22T07:06:26;100970.78;;;33.18;41.30
74542;BME280;63015;45.378;20.360;2023-06-22T07:08:30;100978.19;;;33.16;41.11
74542;BME280;63015;45.378;20.360;2023-06-22T07:10:30;100978.88;;;33.39;40.95
74542;BME280;63015;45.378;20.360;2023-06-22T07:12:31;100983.47;;;33.58;40.65
74542;BME280;63015;45.378;20.360;2023-06-22T07:14:32;100973.41;;;33.80;40.82
74542;BME280;63015;45.378;20.360;2023-06-22T07:16:33;100972.06;;;34.05;40.77
74542;BME280;63015;45.378;20.360;2023-06-22T07:18:33;100962.84;;;34.37;39.62
74542;BME280;63015;45.378;20.360;2023-06-22T07:20:34;100965.94;;;34.13;39.48
74542;BME280;63015;45.378;20.360;2023-06-22T07:22:35;100965.50;;;33.98;38.88
74542;BME280;63015;45.378;20.360;2023-06-22T07:24:35;100969.91;;;33.89;39.21
74542;BME280;63015;45.378;20.360;2023-06-22T07:26:37;100961.41;;;34.03;38.87
74542;BME280;63015;45.378;20.360;2023-06-22T07:28:38;100973.47;;;34.29;38.94
74542;BME280;63015;45.378;20.360;2023-06-22T07:30:40;100965.38;;;34.48;39.11
74542;BME280;63015;45.378;20.360;2023-06-22T07:32:41;100963.63;;;34.57;38.69
74542;BME280;63015;45.378;20.360;2023-06-22T07:34:42;100960.63;;;34.70;37.57
74542;BME280;63015;45.378;20.360;2023-06-22T07:36:44;100961.03;;;34.95;37.24
74542;BME280;63015;45.378;20.360;2023-06-22T07:38:45;100961.28;;;35.29;37.30
74542;BME280;63015;45.378;20.360;2023-06-22T07:40:47;100963.81;;;35.40;36.67
74542;BME280;63015;45.378;20.360;2023-06-22T07:42:47;100960.59;;;35.55;36.07
74542;BME280;63015;45.378;20.360;2023-06-22T07:44:53;100960.72;;;35.63;36.49
74542;BME280;63015;45.378;20.360;2023-06-22T07:46:55;100965.03;;;35.56;36.06
74542;BME280;63015;45.378;20.360;2023-06-22T07:48:56;100968.47;;;35.76;36.15
74542;BME280;63015;45.378;20.360;2023-06-22T07:50:57;100960.72;;;35.81;34.99
74542;BME280;63015;45.378;20.360;2023-06-22T07:52:58;100974.31;;;36.17;34.49
74542;BME280;63015;45.378;20.360;2023-06-22T07:54:58;100971.00;;;36.42;34.05
74542;BME280;63015;45.378;20.360;2023-06-22T07:56:59;100971.56;;;36.53;33.98
74542;BME280;63015;45.378;20.360;2023-06-22T07:59:00;100978.34;;;36.76;34.04
74542;BME280;63015;45.378;20.360;2023-06-22T08:01:02;100972.69;;;36.95;33.60
74542;BME280;63015;45.378;20.360;2023-06-22T08:03:03;100971.31;;;36.91;33.41
74542;BME280;63015;45.378;20.360;2023-06-22T08:05:05;100964.25;;;36.98;33.50
74542;BME280;63015;45.378;20.360;2023-06-22T08:07:08;100965.13;;;36.81;33.16
74542;BME280;63015;45.378;20.360;2023-06-22T08:09:09;100971.53;;;36.98;34.27
74542;BME280;63015;45.378;20.360;2023-06-22T08:11:10;100973.34;;;37.24;33.39
74542;BME280;63015;45.378;20.360;2023-06-22T08:13:11;100971.50;;;37.24;32.75
74542;BME280;63015;45.378;20.360;2023-06-22T08:15:12;100976.31;;;37.04;32.16
74542;BME280;63015;45.378;20.360;2023-06-22T08:17:12;100969.50;;;37.00;31.32
74542;BME280;63015;45.378;20.360;2023-06-22T08:19:13;100963.59;;;36.78;32.28
74542;BME280;63015;45.378;20.360;2023-06-22T08:21:14;100971.59;;;37.06;32.06
74542;BME280;63015;45.378;20.360;2023-06-22T08:23:15;100972.97;;;37.10;32.11
74542;BME280;63015;45.378;20.360;2023-06-22T08:25:15;100972.03;;;36.93;32.95
74542;BME280;63015;45.378;20.360;2023-06-22T08:27:16;100982.38;;;36.98;33.27
74542;BME280;63015;45.378;20.360;2023-06-22T08:29:18;100973.53;;;37.22;33.35
74542;BME280;63015;45.378;20.360;2023-06-22T08:31:20;100980.25;;;37.44;33.01
74542;BME280;63015;45.378;20.360;2023-06-22T08:33:21;100983.00;;;37.53;32.06
74542;BME280;63015;45.378;20.360;2023-06-22T08:35:24;100969.97;;;37.64;32.28
74542;BME280;63015;45.378;20.360;2023-06-22T08:37:24;100983.81;;;37.79;32.05
74542;BME280;63015;45.378;20.360;2023-06-22T08:39:30;100986.16;;;37.82;31.76
74542;BME280;63015;45.378;20.360;2023-06-22T08:41:31;100976.94;;;37.75;30.98
74542;BME280;63015;45.378;20.360;2023-06-22T08:43:32;100981.88;;;37.72;31.32
74542;BME280;63015;45.378;20.360;2023-06-22T08:45:32;100973.50;;;37.65;31.66
74542;BME280;63015;45.378;20.360;2023-06-22T08:47:33;100958.84;;;37.92;31.60
74542;BME280;63015;45.378;20.360;2023-06-22T08:49:34;100963.41;;;38.08;31.45
74542;BME280;63015;45.378;20.360;2023-06-22T08:51:34;100965.59;;;37.88;30.95
74542;BME280;63015;45.378;20.360;2023-06-22T08:53:35;100962.22;;;38.11;30.99
74542;BME280;63015;45.378;20.360;2023-06-22T08:55:37;100964.59;;;38.06;31.00
74542;BME280;63015;45.378;20.360;2023-06-22T08:57:37;100958.97;;;37.91;31.29
74542;BME280;63015;45.378;20.360;2023-06-22T08:59:39;100962.41;;;38.17;30.77
74542;BME280;63015;45.378;20.360;2023-06-22T09:01:40;100965.13;;;37.84;30.70
74542;BME280;63015;45.378;20.360;2023-06-22T09:03:41;100967.59;;;37.70;31.91
74542;BME280;63015;45.378;20.360;2023-06-22T09:05:42;100960.00;;;37.81;32.00
74542;BME280;63015;45.378;20.360;2023-06-22T09:07:43;100962.31;;;37.68;31.31
74542;BME280;63015;45.378;20.360;2023-06-22T09:09:43;100956.00;;;37.51;32.24
74542;BME280;63015;45.378;20.360;2023-06-22T09:11:44;100966.34;;;37.47;32.01
74542;BME280;63015;45.378;20.360;2023-06-22T09:13:45;100957.13;;;37.06;32.63
74542;BME280;63015;45.378;20.360;2023-06-22T09:15:46;100962.00;;;37.28;32.26
74542;BME280;63015;45.378;20.360;2023-06-22T09:17:47;100960.94;;;37.21;32.13
74542;BME280;63015;45.378;20.360;2023-06-22T09:19:48;100953.84;;;37.28;31.58
74542;BME280;63015;45.378;20.360;2023-06-22T09:21:49;100959.50;;;37.35;32.07
74542;BME280;63015;45.378;20.360;2023-06-22T09:23:49;100961.28;;;37.18;32.18
74542;BME280;63015;45.378;20.360;2023-06-22T09:25:53;100959.13;;;37.30;32.16
74542;BME280;63015;45.378;20.360;2023-06-22T09:27:53;100959.91;;;37.57;31.78
74542;BME280;63015;45.378;20.360;2023-06-22T09:29:54;100961.81;;;37.73;31.33
74542;BME280;63015;45.378;20.360;2023-06-22T09:31:55;100960.13;;;37.72;31.32
74542;BME280;63015;45.378;20.360;2023-06-22T09:33:56;100961.47;;;37.67;30.97
74542;BME280;63015;45.378;20.360;2023-06-22T09:35:57;100965.53;;;37.55;31.89
74542;BME280;63015;45.378;20.360;2023-06-22T09:37:57;100956.66;;;37.53;31.08
74542;BME280;63015;45.378;20.360;2023-06-22T09:39:58;100967.69;;;37.09;31.50
74542;BME280;63015;45.378;20.360;2023-06-22T09:41:59;100967.91;;;36.63;32.61
74542;BME280;63015;45.378;20.360;2023-06-22T09:44:00;100964.97;;;36.82;32.09
74542;BME280;63015;45.378;20.360;2023-06-22T09:46:01;100968.69;;;36.99;32.33
74542;BME280;63015;45.378;20.360;2023-06-22T09:48:02;100964.78;;;37.37;31.14
74542;BME280;63015;45.378;20.360;2023-06-22T09:50:03;100958.88;;;37.49;31.07
74542;BME280;63015;45.378;20.360;2023-06-22T09:52:04;100972.19;;;37.77;30.50
74542;BME280;63015;45.378;20.360;2023-06-22T09:54:05;100972.31;;;37.67;30.56
74542;BME280;63015;45.378;20.360;2023-06-22T09:56:06;100960.25;;;37.62;30.36
74542;BME280;63015;45.378;20.360;2023-06-22T09:58:06;100963.75;;;37.38;30.72
74542;BME280;63015;45.378;20.360;2023-06-22T10:00:07;100958.72;;;37.51;30.41
74542;BME280;63015;45.378;20.360;2023-06-22T10:02:13;100958.50;;;37.44;30.73
74542;BME280;63015;45.378;20.360;2023-06-22T10:04:14;100963.22;;;37.34;30.45
74542;BME280;63015;45.378;20.360;2023-06-22T10:06:14;100971.34;;;37.26;30.69
74542;BME280;63015;45.378;20.360;2023-06-22T10:08:15;100978.88;;;35.99;36.08
74542;BME280;63015;45.378;20.360;2023-06-22T10:10:16;100982.13;;;34.91;39.42
74542;BME280;63015;45.378;20.360;2023-06-22T10:12:17;100966.03;;;34.70;39.99
74542;BME280;63015;45.378;20.360;2023-06-22T10:14:17;100968.09;;;34.48;40.32
74542;BME280;63015;45.378;20.360;2023-06-22T10:16:18;100967.06;;;34.49;40.44
74542;BME280;63015;45.378;20.360;2023-06-22T10:18:19;100963.81;;;34.16;40.34
74542;BME280;63015;45.378;20.360;2023-06-22T10:20:20;100971.63;;;34.29;39.93
74542;BME280;63015;45.378;20.360;2023-06-22T10:22:22;100975.88;;;34.12;39.98
74542;BME280;63015;45.378;20.360;2023-06-22T10:24:22;100965.22;;;34.20;39.74
74542;BME280;63015;45.378;20.360;2023-06-22T10:26:23;100977.47;;;34.24;39.35
74542;BME280;63015;45.378;20.360;2023-06-22T10:28:24;100971.22;;;34.24;39.35
74542;BME280;63015;45.378;20.360;2023-06-22T10:30:24;100970.09;;;34.36;38.90
74542;BME280;63015;45.378;20.360;2023-06-22T10:32:26;100981.19;;;34.33;40.17
74542;BME280;63015;45.378;20.360;2023-06-22T10:34:28;100973.75;;;33.96;39.87
74542;BME280;63015;45.378;20.360;2023-06-22T10:36:28;100976.19;;;34.09;39.46